sensor_id;sensor_type;location;lat;lon;timestamp;P1;durP1;ratioP1;P2;durP2;ratioP2
3433;SDS011;1730;41.932;25.548;2023-11-18T00:02:17;11.40;;;10.37;;
3433;SDS011;1730;41.932;25.548;2023-11-18T00:04:43;13.87;;;11.93;;
3433;SDS011;1730;41.932;25.548;2023-11-18T00:07:08;15.50;;;13.83;;
3433;SDS011;1730;41.932;25.548;2023-11-18T00:09:34;18.77;;;13.63;;
3433;SDS011;1730;41.932;25.548;2023-11-18T00:12:00;13.90;;;12.43;;
3433;SDS011;1730;41.932;25.548;2023-11-18T00:14:26;15.07;;;13.47;;
3433;SDS011;1730;41.932;25.548;2023-11-18T00:16:51;15.17;;;13.47;;
3433;SDS011;1730;41.932;25.548;2023-11-18T00:19:17;13.73;;;11.77;;
3433;SDS011;1730;41.932;25.548;2023-11-18T00:21:43;15.60;;;11.87;;
3433;SDS011;1730;41.932;25.548;2023-11-18T00:24:09;13.90;;;12.30;;
3433;SDS011;1730;41.932;25.548;2023-11-18T00:26:35;12.67;;;11.27;;
3433;SDS011;1730;41.932;25.548;2023-11-18T00:29:00;13.00;;;11.60;;
3433;SDS011;1730;41.932;25.548;2023-11-18T00:31:26;12.43;;;11.23;;
3433;SDS011;1730;41.932;25.548;2023-11-18T00:33:52;12.73;;;11.43;;
3433;SDS011;1730;41.932;25.548;2023-11-18T00:36:18;13.87;;;12.30;;
3433;SDS011;1730;41.932;25.548;2023-11-18T00:38:43;12.97;;;11.77;;
3433;SDS011;1730;41.932;25.548;2023-11-18T00:41:09;14.60;;;11.97;;
3433;SDS011;1730;41.932;25.548;2023-11-18T00:43:35;14.60;;;12.00;;
3433;SDS011;1730;41.932;25.548;2023-11-18T00:46:00;11.70;;;10.53;;
3433;SDS011;1730;41.932;25.548;2023-11-18T00:48:28;11.93;;;10.83;;
3433;SDS011;1730;41.932;25.548;2023-11-18T00:50:53;12.47;;;11.27;;
3433;SDS011;1730;41.932;25.548;2023-11-18T00:53:19;13.00;;;11.70;;
3433;SDS011;1730;41.932;25.548;2023-11-18T00:55:44;12.73;;;11.43;;
3433;SDS011;1730;41.932;25.548;2023-11-18T00:58:10;15.17;;;11.40;;
3433;SDS011;1730;41.932;25.548;2023-11-18T01:00:36;13.37;;;11.97;;
3433;SDS011;1730;41.932;25.548;2023-11-18T01:03:02;14.70;;;11.23;;
3433;SDS011;1730;41.932;25.548;2023-11-18T01:05:28;12.30;;;11.07;;
3433;SDS011;1730;41.932;25.548;2023-11-18T01:07:56;14.20;;;11.53;;
3433;SDS011;1730;41.932;25.548;2023-11-18T01:10:23;11.23;;;10.17;;
3433;SDS011;1730;41.932;25.548;2023-11-18T01:12:48;11.90;;;10.80;;
3433;SDS011;1730;41.932;25.548;2023-11-18T01:15:14;12.13;;;10.47;;
3433;SDS011;1730;41.932;25.548;2023-11-18T01:17:40;12.93;;;11.77;;
3433;SDS011;1730;41.932;25.548;2023-11-18T01:20:06;12.37;;;11.20;;
3433;SDS011;1730;41.932;25.548;2023-11-18T01:22:36;10.43;;;9.43;;
3433;SDS011;1730;41.932;25.548;2023-11-18T01:25:04;10.80;;;8.97;;
3433;SDS011;1730;41.932;25.548;2023-11-18T01:27:30;11.43;;;10.43;;
3433;SDS011;1730;41.932;25.548;2023-11-18T01:29:59;11.53;;;10.43;;
3433;SDS011;1730;41.932;25.548;2023-11-18T01:32:25;11.23;;;9.70;;
3433;SDS011;1730;41.932;25.548;2023-11-18T01:34:50;13.07;;;11.70;;
3433;SDS011;1730;41.932;25.548;2023-11-18T01:37:16;13.67;;;12.27;;
3433;SDS011;1730;41.932;25.548;2023-11-18T01:39:42;17.30;;;13.60;;
3433;SDS011;1730;41.932;25.548;2023-11-18T01:42:08;13.80;;;11.47;;
3433;SDS011;1730;41.932;25.548;2023-11-18T01:44:33;13.67;;;12.27;;
3433;SDS011;1730;41.932;25.548;2023-11-18T01:47:03;12.10;;;10.90;;
3433;SDS011;1730;41.932;25.548;2023-11-18T01:49:35;12.27;;;10.60;;
3433;SDS011;1730;41.932;25.548;2023-11-18T01:52:05;11.40;;;10.30;;
3433;SDS011;1730;41.932;25.548;2023-11-18T01:54:33;11.63;;;10.53;;
3433;SDS011;1730;41.932;25.548;2023-11-18T01:57:02;10.70;;;9.70;;
3433;SDS011;1730;41.932;25.548;2023-11-18T01:59:31;10.43;;;9.50;;
3433;SDS011;1730;41.932;25.548;2023-11-18T02:01:58;9.07;;;8.27;;
3433;SDS011;1730;41.932;25.548;2023-11-18T02:04:25;8.27;;;7.60;;
3433;SDS011;1730;41.932;25.548;2023-11-18T02:06:51;9.90;;;8.10;;
3433;SDS011;1730;41.932;25.548;2023-11-18T02:09:20;8.83;;;8.03;;
3433;SDS011;1730;41.932;25.548;2023-11-18T02:14:29;10.00;;;9.00;;
3433;SDS011;1730;41.932;25.548;2023-11-18T02:16:59;9.50;;;8.50;;
3433;SDS011;1730;41.932;25.548;2023-11-18T02:19:27;9.10;;;8.30;;
3433;SDS011;1730;41.932;25.548;2023-11-18T02:21:55;10.10;;;8.20;;
3433;SDS011;1730;41.932;25.548;2023-11-18T02:24:25;11.40;;;9.83;;
3433;SDS011;1730;41.932;25.548;2023-11-18T02:26:59;10.57;;;9.57;;
3433;SDS011;1730;41.932;25.548;2023-11-18T02:29:26;10.23;;;9.23;;
3433;SDS011;1730;41.932;25.548;2023-11-18T02:31:59;9.00;;;8.20;;
3433;SDS011;1730;41.932;25.548;2023-11-18T02:34:40;8.83;;;8.13;;
3433;SDS011;1730;41.932;25.548;2023-11-18T02:37:14;9.17;;;8.33;;
3433;SDS011;1730;41.932;25.548;2023-11-18T02:39:45;11.20;;;8.80;;
3433;SDS011;1730;41.932;25.548;2023-11-18T02:42:18;10.23;;;9.07;;
3433;SDS011;1730;41.932;25.548;2023-11-18T02:44:46;10.47;;;9.53;;
3433;SDS011;1730;41.932;25.548;2023-11-18T02:47:15;14.10;;;9.20;;
3433;SDS011;1730;41.932;25.548;2023-11-18T02:49:41;8.50;;;7.83;;
3433;SDS011;1730;41.932;25.548;2023-11-18T02:52:06;7.83;;;6.77;;
3433;SDS011;1730;41.932;25.548;2023-11-18T02:54:35;6.57;;;6.07;;
3433;SDS011;1730;41.932;25.548;2023-11-18T02:57:01;6.10;;;5.60;;
3433;SDS011;1730;41.932;25.548;2023-11-18T02:59:26;11.23;;;6.07;;
3433;SDS011;1730;41.932;25.548;2023-11-18T03:01:55;5.97;;;5.57;;
3433;SDS011;1730;41.932;25.548;2023-11-18T03:04:21;6.13;;;5.63;;
3433;SDS011;1730;41.932;25.548;2023-11-18T03:06:49;7.50;;;5.80;;
3433;SDS011;1730;41.932;25.548;2023-11-18T03:09:15;6.43;;;6.00;;
3433;SDS011;1730;41.932;25.548;2023-11-18T03:11:40;5.70;;;5.20;;
3433;SDS011;1730;41.932;25.548;2023-11-18T03:14:06;6.70;;;6.20;;
3433;SDS011;1730;41.932;25.548;2023-11-18T03:16:36;6.03;;;5.60;;
3433;SDS011;1730;41.932;25.548;2023-11-18T03:19:03;6.97;;;6.40;;
3433;SDS011;1730;41.932;25.548;2023-11-18T03:21:30;5.57;;;5.17;;
3433;SDS011;1730;41.932;25.548;2023-11-18T03:23:55;5.67;;;5.20;;
3433;SDS011;1730;41.932;25.548;2023-11-18T03:26:21;5.03;;;4.63;;
3433;SDS011;1730;41.932;25.548;2023-11-18T03:28:46;5.37;;;5.07;;
3433;SDS011;1730;41.932;25.548;2023-11-18T03:31:12;5.10;;;4.00;;
3433;SDS011;1730;41.932;25.548;2023-11-18T03:33:39;8.03;;;4.20;;
3433;SDS011;1730;41.932;25.548;2023-11-18T03:36:05;4.10;;;3.80;;
3433;SDS011;1730;41.932;25.548;2023-11-18T03:38:31;3.37;;;3.17;;
3433;SDS011;1730;41.932;25.548;2023-11-18T03:40:56;2.80;;;2.60;;
3433;SDS011;1730;41.932;25.548;2023-11-18T03:43:23;2.37;;;2.17;;
3433;SDS011;1730;41.932;25.548;2023-11-18T03:45:48;2.30;;;2.13;;
3433;SDS011;1730;41.932;25.548;2023-11-18T03:48:14;1.93;;;1.80;;
3433;SDS011;1730;41.932;25.548;2023-11-18T03:50:40;2.10;;;2.00;;
3433;SDS011;1730;41.932;25.548;2023-11-18T03:53:06;1.97;;;1.80;;
3433;SDS011;1730;41.932;25.548;2023-11-18T03:55:32;1.40;;;1.30;;
3433;SDS011;1730;41.932;25.548;2023-11-18T03:57:58;2.20;;;1.10;;
3433;SDS011;1730;41.932;25.548;2023-11-18T04:00:24;1.40;;;1.30;;
3433;SDS011;1730;41.932;25.548;2023-11-18T04:02:57;1.40;;;1.30;;
3433;SDS011;1730;41.932;25.548;2023-11-18T04:05:24;1.40;;;1.30;;
3433;SDS011;1730;41.932;25.548;2023-11-18T04:07:49;1.20;;;1.10;;
3433;SDS011;1730;41.932;25.548;2023-11-18T04:10:15;1.37;;;1.10;;
3433;SDS011;1730;41.932;25.548;2023-11-18T04:12:41;1.33;;;1.23;;
3433;SDS011;1730;41.932;25.548;2023-11-18T04:15:11;1.40;;;1.17;;
3433;SDS011;1730;41.932;25.548;2023-11-18T04:17:37;1.20;;;1.00;;
3433;SDS011;1730;41.932;25.548;2023-11-18T04:20:03;1.20;;;1.00;;
3433;SDS011;1730;41.932;25.548;2023-11-18T04:22:33;1.10;;;0.90;;
3433;SDS011;1730;41.932;25.548;2023-11-18T04:24:59;1.30;;;1.20;;
3433;SDS011;1730;41.932;25.548;2023-11-18T04:27:24;1.10;;;0.90;;
3433;SDS011;1730;41.932;25.548;2023-11-18T04:29:50;1.47;;;1.00;;
3433;SDS011;1730;41.932;25.548;2023-11-18T04:32:24;1.20;;;1.00;;
3433;SDS011;1730;41.932;25.548;2023-11-18T04:34:49;0.90;;;0.70;;
3433;SDS011;1730;41.932;25.548;2023-11-18T04:37:16;1.00;;;0.90;;
3433;SDS011;1730;41.932;25.548;2023-11-18T04:39:42;2.73;;;1.10;;
3433;SDS011;1730;41.932;25.548;2023-11-18T04:42:08;1.20;;;1.10;;
3433;SDS011;1730;41.932;25.548;2023-11-18T04:44:33;1.10;;;0.97;;
3433;SDS011;1730;41.932;25.548;2023-11-18T04:46:59;1.10;;;0.90;;
3433;SDS011;1730;41.932;25.548;2023-11-18T04:49:26;1.00;;;0.90;;
3433;SDS011;1730;41.932;25.548;2023-11-18T04:51:51;5.53;;;1.50;;
3433;SDS011;1730;41.932;25.548;2023-11-18T04:54:17;1.87;;;1.13;;
3433;SDS011;1730;41.932;25.548;2023-11-18T04:56:44;1.40;;;1.20;;
3433;SDS011;1730;41.932;25.548;2023-11-18T04:59:10;1.30;;;1.20;;
3433;SDS011;1730;41.932;25.548;2023-11-18T05:01:35;1.30;;;1.10;;
3433;SDS011;1730;41.932;25.548;2023-11-18T05:04:03;1.20;;;1.10;;
3433;SDS011;1730;41.932;25.548;2023-11-18T05:06:29;1.10;;;1.00;;
3433;SDS011;1730;41.932;25.548;2023-11-18T05:08:54;1.20;;;1.10;;
3433;SDS011;1730;41.932;25.548;2023-11-18T05:11:20;1.30;;;1.20;;
3433;SDS011;1730;41.932;25.548;2023-11-18T05:13:46;1.30;;;1.20;;
3433;SDS011;1730;41.932;25.548;2023-11-18T05:16:11;1.43;;;1.33;;
3433;SDS011;1730;41.932;25.548;2023-11-18T05:18:37;1.80;;;1.40;;
3433;SDS011;1730;41.932;25.548;2023-11-18T05:21:04;1.43;;;1.33;;
3433;SDS011;1730;41.932;25.548;2023-11-18T05:23:30;1.27;;;1.17;;
3433;SDS011;1730;41.932;25.548;2023-11-18T05:25:57;1.17;;;1.07;;
3433;SDS011;1730;41.932;25.548;2023-11-18T05:28:23;1.13;;;1.03;;
3433;SDS011;1730;41.932;25.548;2023-11-18T05:30:49;1.17;;;1.07;;
3433;SDS011;1730;41.932;25.548;2023-11-18T05:33:16;1.10;;;1.00;;
3433;SDS011;1730;41.932;25.548;2023-11-18T05:35:46;1.30;;;1.20;;
3433;SDS011;1730;41.932;25.548;2023-11-18T05:38:15;1.17;;;1.07;;
3433;SDS011;1730;41.932;25.548;2023-11-18T05:40:49;1.37;;;1.27;;
3433;SDS011;1730;41.932;25.548;2023-11-18T05:43:22;1.37;;;1.27;;
3433;SDS011;1730;41.932;25.548;2023-11-18T05:45:55;1.57;;;1.47;;
3433;SDS011;1730;41.932;25.548;2023-11-18T05:48:39;1.30;;;1.20;;
3433;SDS011;1730;41.932;25.548;2023-11-18T05:51:09;1.60;;;1.50;;
3433;SDS011;1730;41.932;25.548;2023-11-18T05:53:44;1.50;;;1.40;;
3433;SDS011;1730;41.932;25.548;2023-11-18T05:56:11;1.50;;;1.40;;
3433;SDS011;1730;41.932;25.548;2023-11-18T05:58:37;1.70;;;1.60;;
3433;SDS011;1730;41.932;25.548;2023-11-18T06:01:04;1.83;;;1.73;;
3433;SDS011;1730;41.932;25.548;2023-11-18T06:03:33;1.90;;;1.80;;
3433;SDS011;1730;41.932;25.548;2023-11-18T06:06:05;1.73;;;1.63;;
3433;SDS011;1730;41.932;25.548;2023-11-18T06:08:38;1.60;;;1.50;;
3433;SDS011;1730;41.932;25.548;2023-11-18T06:11:09;1.87;;;1.77;;
3433;SDS011;1730;41.932;25.548;2023-11-18T06:13:39;2.40;;;2.30;;
3433;SDS011;1730;41.932;25.548;2023-11-18T06:16:20;2.17;;;2.07;;
3433;SDS011;1730;41.932;25.548;2023-11-18T06:18:47;2.20;;;2.10;;
3433;SDS011;1730;41.932;25.548;2023-11-18T06:21:14;2.30;;;2.20;;
3433;SDS011;1730;41.932;25.548;2023-11-18T06:23:42;2.33;;;2.13;;
3433;SDS011;1730;41.932;25.548;2023-11-18T06:26:08;2.70;;;2.50;;
3433;SDS011;1730;41.932;25.548;2023-11-18T06:28:36;2.50;;;2.30;;
3433;SDS011;1730;41.932;25.548;2023-11-18T06:31:02;2.23;;;2.13;;
3433;SDS011;1730;41.932;25.548;2023-11-18T06:33:28;2.50;;;2.40;;
3433;SDS011;1730;41.932;25.548;2023-11-18T06:35:54;2.67;;;2.53;;
3433;SDS011;1730;41.932;25.548;2023-11-18T06:38:21;2.27;;;2.07;;
3433;SDS011;1730;41.932;25.548;2023-11-18T06:40:47;2.40;;;2.30;;
3433;SDS011;1730;41.932;25.548;2023-11-18T06:43:17;2.60;;;2.43;;
3433;SDS011;1730;41.932;25.548;2023-11-18T06:45:44;2.90;;;2.70;;
3433;SDS011;1730;41.932;25.548;2023-11-18T06:48:12;2.90;;;2.70;;
3433;SDS011;1730;41.932;25.548;2023-11-18T06:50:39;2.60;;;2.40;;
3433;SDS011;1730;41.932;25.548;2023-11-18T06:53:09;3.63;;;3.43;;
3433;SDS011;1730;41.932;25.548;2023-11-18T06:55:35;3.07;;;2.87;;
3433;SDS011;1730;41.932;25.548;2023-11-18T06:58:01;4.17;;;2.67;;
3433;SDS011;1730;41.932;25.548;2023-11-18T07:00:27;3.53;;;3.33;;
3433;SDS011;1730;41.932;25.548;2023-11-18T07:02:54;3.00;;;2.80;;
3433;SDS011;1730;41.932;25.548;2023-11-18T07:05:20;3.13;;;2.93;;
3433;SDS011;1730;41.932;25.548;2023-11-18T07:07:49;3.30;;;3.10;;
3433;SDS011;1730;41.932;25.548;2023-11-18T07:10:15;2.70;;;2.50;;
3433;SDS011;1730;41.932;25.548;2023-11-18T07:12:46;3.00;;;2.80;;
3433;SDS011;1730;41.932;25.548;2023-11-18T07:15:13;3.23;;;3.03;;
3433;SDS011;1730;41.932;25.548;2023-11-18T07:17:40;3.37;;;3.17;;
3433;SDS011;1730;41.932;25.548;2023-11-18T07:20:06;3.13;;;2.93;;
3433;SDS011;1730;41.932;25.548;2023-11-18T07:22:31;4.03;;;3.63;;
3433;SDS011;1730;41.932;25.548;2023-11-18T07:24:57;2.93;;;2.73;;
3433;SDS011;1730;41.932;25.548;2023-11-18T07:27:23;2.70;;;2.50;;
3433;SDS011;1730;41.932;25.548;2023-11-18T07:29:48;2.43;;;2.33;;
3433;SDS011;1730;41.932;25.548;2023-11-18T07:32:14;2.67;;;2.53;;
3433;SDS011;1730;41.932;25.548;2023-11-18T07:34:39;2.97;;;2.77;;
3433;SDS011;1730;41.932;25.548;2023-11-18T07:37:09;4.10;;;2.77;;
3433;SDS011;1730;41.932;25.548;2023-11-18T07:39:38;6.77;;;2.87;;
3433;SDS011;1730;41.932;25.548;2023-11-18T07:42:13;2.83;;;2.07;;
3433;SDS011;1730;41.932;25.548;2023-11-18T07:44:40;2.80;;;2.60;;
3433;SDS011;1730;41.932;25.548;2023-11-18T07:47:06;3.67;;;2.67;;
3433;SDS011;1730;41.932;25.548;2023-11-18T07:49:34;2.40;;;2.30;;
3433;SDS011;1730;41.932;25.548;2023-11-18T07:52:01;4.30;;;3.40;;
3433;SDS011;1730;41.932;25.548;2023-11-18T07:54:27;3.70;;;3.50;;
3433;SDS011;1730;41.932;25.548;2023-11-18T07:56:53;6.03;;;3.20;;
3433;SDS011;1730;41.932;25.548;2023-11-18T07:59:19;6.80;;;3.10;;
3433;SDS011;1730;41.932;25.548;2023-11-18T08:01:45;4.50;;;3.70;;
3433;SDS011;1730;41.932;25.548;2023-11-18T08:04:11;3.10;;;2.90;;
3433;SDS011;1730;41.932;25.548;2023-11-18T08:06:41;5.27;;;2.60;;
3433;SDS011;1730;41.932;25.548;2023-11-18T08:09:11;2.20;;;2.10;;
3433;SDS011;1730;41.932;25.548;2023-11-18T08:11:39;2.77;;;2.57;;
3433;SDS011;1730;41.932;25.548;2023-11-18T08:14:09;2.50;;;2.40;;
3433;SDS011;1730;41.932;25.548;2023-11-18T08:16:35;3.67;;;2.27;;
3433;SDS011;1730;41.932;25.548;2023-11-18T08:19:01;2.90;;;2.70;;
3433;SDS011;1730;41.932;25.548;2023-11-18T08:21:27;2.90;;;2.70;;
3433;SDS011;1730;41.932;25.548;2023-11-18T08:23:53;2.20;;;2.00;;
3433;SDS011;1730;41.932;25.548;2023-11-18T08:26:19;2.27;;;2.17;;
3433;SDS011;1730;41.932;25.548;2023-11-18T08:28:45;2.60;;;2.40;;
3433;SDS011;1730;41.932;25.548;2023-11-18T08:31:13;3.70;;;2.33;;
3433;SDS011;1730;41.932;25.548;2023-11-18T08:33:40;3.57;;;2.73;;
3433;SDS011;1730;41.932;25.548;2023-11-18T08:36:07;2.63;;;2.43;;
3433;SDS011;1730;41.932;25.548;2023-11-18T08:38:33;5.00;;;1.70;;
3433;SDS011;1730;41.932;25.548;2023-11-18T08:41:00;1.40;;;1.30;;
3433;SDS011;1730;41.932;25.548;2023-11-18T08:43:26;2.67;;;2.27;;
3433;SDS011;1730;41.932;25.548;2023-11-18T08:45:54;2.50;;;2.30;;
3433;SDS011;1730;41.932;25.548;2023-11-18T08:48:20;1.70;;;1.60;;
3433;SDS011;1730;41.932;25.548;2023-11-18T08:50:48;1.80;;;1.70;;
3433;SDS011;1730;41.932;25.548;2023-11-18T08:53:14;1.77;;;1.50;;
3433;SDS011;1730;41.932;25.548;2023-11-18T08:55:43;1.90;;;1.80;;
3433;SDS011;1730;41.932;25.548;2023-11-18T08:58:22;1.20;;;1.10;;
3433;SDS011;1730;41.932;25.548;2023-11-18T09:00:52;1.77;;;1.67;;
3433;SDS011;1730;41.932;25.548;2023-11-18T09:03:36;1.70;;;1.50;;
3433;SDS011;1730;41.932;25.548;2023-11-18T09:06:08;2.07;;;1.63;;
3433;SDS011;1730;41.932;25.548;2023-11-18T09:08:45;3.10;;;1.90;;
3433;SDS011;1730;41.932;25.548;2023-11-18T09:11:12;1.63;;;1.53;;
3433;SDS011;1730;41.932;25.548;2023-11-18T09:13:48;1.50;;;1.40;;
3433;SDS011;1730;41.932;25.548;2023-11-18T09:16:16;7.60;;;1.33;;
3433;SDS011;1730;41.932;25.548;2023-11-18T09:18:42;1.60;;;1.40;;
3433;SDS011;1730;41.932;25.548;2023-11-18T09:21:12;2.27;;;1.30;;
3433;SDS011;1730;41.932;25.548;2023-11-18T09:23:39;2.07;;;1.47;;
3433;SDS011;1730;41.932;25.548;2023-11-18T09:26:07;1.43;;;1.20;;
3433;SDS011;1730;41.932;25.548;2023-11-18T09:28:34;3.93;;;1.57;;
3433;SDS011;1730;41.932;25.548;2023-11-18T09:31:00;2.50;;;1.27;;
3433;SDS011;1730;41.932;25.548;2023-11-18T09:33:28;1.20;;;1.10;;
3433;SDS011;1730;41.932;25.548;2023-11-18T09:35:58;2.10;;;1.70;;
3433;SDS011;1730;41.932;25.548;2023-11-18T09:38:28;2.67;;;1.53;;
3433;SDS011;1730;41.932;25.548;2023-11-18T09:40:58;2.13;;;1.60;;
3433;SDS011;1730;41.932;25.548;2023-11-18T09:43:30;1.90;;;1.40;;
3433;SDS011;1730;41.932;25.548;2023-11-18T09:46:11;4.70;;;1.30;;
3433;SDS011;1730;41.932;25.548;2023-11-18T09:51:20;2.33;;;1.70;;
3433;SDS011;1730;41.932;25.548;2023-11-18T09:54:33;11.97;;;7.73;;
3433;SDS011;1730;41.932;25.548;2023-11-18T09:57:31;1.50;;;1.40;;
3433;SDS011;1730;41.932;25.548;2023-11-18T10:02:51;3.10;;;1.30;;
3433;SDS011;1730;41.932;25.548;2023-11-18T10:05:18;4.80;;;1.10;;
3433;SDS011;1730;41.932;25.548;2023-11-18T10:07:51;1.20;;;1.10;;
3433;SDS011;1730;41.932;25.548;2023-11-18T10:10:21;1.60;;;1.50;;
3433;SDS011;1730;41.932;25.548;2023-11-18T10:12:47;2.17;;;1.33;;
3433;SDS011;1730;41.932;25.548;2023-11-18T10:15:21;5.13;;;1.70;;
3433;SDS011;1730;41.932;25.548;2023-11-18T10:17:51;1.70;;;1.60;;
3433;SDS011;1730;41.932;25.548;2023-11-18T10:23:13;2.17;;;1.57;;
3433;SDS011;1730;41.932;25.548;2023-11-18T10:25:48;1.77;;;1.63;;
3433;SDS011;1730;41.932;25.548;2023-11-18T10:28:28;1.43;;;1.33;;
3433;SDS011;1730;41.932;25.548;2023-11-18T10:31:04;1.70;;;1.60;;
3433;SDS011;1730;41.932;25.548;2023-11-18T10:36:06;5.90;;;2.40;;
3433;SDS011;1730;41.932;25.548;2023-11-18T10:38:48;2.57;;;2.00;;
3433;SDS011;1730;41.932;25.548;2023-11-18T10:41:19;3.77;;;3.20;;
3433;SDS011;1730;41.932;25.548;2023-11-18T10:43:45;2.00;;;1.90;;
3433;SDS011;1730;41.932;25.548;2023-11-18T10:46:13;1.70;;;1.20;;
3433;SDS011;1730;41.932;25.548;2023-11-18T10:48:41;3.80;;;2.40;;
3433;SDS011;1730;41.932;25.548;2023-11-18T10:51:18;2.80;;;1.40;;
3433;SDS011;1730;41.932;25.548;2023-11-18T10:53:48;1.30;;;1.20;;
3433;SDS011;1730;41.932;25.548;2023-11-18T10:56:26;1.50;;;1.40;;
3433;SDS011;1730;41.932;25.548;2023-11-18T10:58:57;1.97;;;1.10;;
3433;SDS011;1730;41.932;25.548;2023-11-18T11:01:29;3.57;;;1.60;;
3433;SDS011;1730;41.932;25.548;2023-11-18T11:04:00;14.03;;;2.30;;
3433;SDS011;1730;41.932;25.548;2023-11-18T11:06:32;6.47;;;2.10;;
3433;SDS011;1730;41.932;25.548;2023-11-18T11:08:59;4.47;;;4.07;;
3433;SDS011;1730;41.932;25.548;2023-11-18T11:11:25;3.50;;;2.47;;
3433;SDS011;1730;41.932;25.548;2023-11-18T11:14:00;1.50;;;1.40;;
3433;SDS011;1730;41.932;25.548;2023-11-18T11:16:28;3.30;;;1.70;;
3433;SDS011;1730;41.932;25.548;2023-11-18T11:19:04;2.40;;;1.60;;
3433;SDS011;1730;41.932;25.548;2023-11-18T11:21:43;2.03;;;1.70;;
3433;SDS011;1730;41.932;25.548;2023-11-18T11:24:23;2.87;;;1.33;;
3433;SDS011;1730;41.932;25.548;2023-11-18T11:27:04;2.73;;;1.50;;
3433;SDS011;1730;41.932;25.548;2023-11-18T11:29:57;3.77;;;2.20;;
3433;SDS011;1730;41.932;25.548;2023-11-18T11:32:36;3.30;;;2.33;;
3433;SDS011;1730;41.932;25.548;2023-11-18T11:35:14;2.33;;;1.70;;
3433;SDS011;1730;41.932;25.548;2023-11-18T11:37:46;5.93;;;2.00;;
3433;SDS011;1730;41.932;25.548;2023-11-18T11:40:13;6.60;;;1.10;;
3433;SDS011;1730;41.932;25.548;2023-11-18T11:42:47;2.50;;;1.40;;
3433;SDS011;1730;41.932;25.548;2023-11-18T11:45:23;1.40;;;1.30;;
3433;SDS011;1730;41.932;25.548;2023-11-18T11:47:54;3.00;;;1.57;;
3433;SDS011;1730;41.932;25.548;2023-11-18T11:50:53;8.30;;;1.20;;
3433;SDS011;1730;41.932;25.548;2023-11-18T11:53:22;2.17;;;1.10;;
3433;SDS011;1730;41.932;25.548;2023-11-18T11:55:52;2.50;;;1.30;;
3433;SDS011;1730;41.932;25.548;2023-11-18T11:58:25;1.40;;;1.30;;
3433;SDS011;1730;41.932;25.548;2023-11-18T12:00:58;2.87;;;1.40;;
3433;SDS011;1730;41.932;25.548;2023-11-18T12:03:33;1.50;;;1.40;;
3433;SDS011;1730;41.932;25.548;2023-11-18T12:06:04;1.53;;;1.33;;
3433;SDS011;1730;41.932;25.548;2023-11-18T12:08:34;2.90;;;1.60;;
3433;SDS011;1730;41.932;25.548;2023-11-18T12:11:05;5.30;;;1.80;;
3433;SDS011;1730;41.932;25.548;2023-11-18T12:13:35;1.50;;;1.40;;
3433;SDS011;1730;41.932;25.548;2023-11-18T12:16:04;5.30;;;1.30;;
3433;SDS011;1730;41.932;25.548;2023-11-18T12:18:31;1.20;;;1.10;;
3433;SDS011;1730;41.932;25.548;2023-11-18T12:20:59;3.80;;;1.47;;
3433;SDS011;1730;41.932;25.548;2023-11-18T12:23:29;1.30;;;1.20;;
3433;SDS011;1730;41.932;25.548;2023-11-18T12:25:56;1.30;;;1.20;;
3433;SDS011;1730;41.932;25.548;2023-11-18T12:28:30;3.53;;;2.63;;
3433;SDS011;1730;41.932;25.548;2023-11-18T12:31:00;1.10;;;1.00;;
3433;SDS011;1730;41.932;25.548;2023-11-18T12:41:42;3.73;;;1.60;;
3433;SDS011;1730;41.932;25.548;2023-11-18T12:46:59;1.37;;;1.27;;
3433;SDS011;1730;41.932;25.548;2023-11-18T12:49:47;6.00;;;1.30;;
3433;SDS011;1730;41.932;25.548;2023-11-18T12:52:20;3.30;;;1.20;;
3433;SDS011;1730;41.932;25.548;2023-11-18T12:54:47;1.50;;;1.40;;
3433;SDS011;1730;41.932;25.548;2023-11-18T12:57:16;1.93;;;1.37;;
3433;SDS011;1730;41.932;25.548;2023-11-18T12:59:44;4.40;;;1.73;;
3433;SDS011;1730;41.932;25.548;2023-11-18T13:02:11;4.60;;;1.50;;
3433;SDS011;1730;41.932;25.548;2023-11-18T13:04:46;1.70;;;1.60;;
3433;SDS011;1730;41.932;25.548;2023-11-18T13:09:44;2.03;;;1.40;;
3433;SDS011;1730;41.932;25.548;2023-11-18T13:12:11;5.43;;;1.30;;
3433;SDS011;1730;41.932;25.548;2023-11-18T13:14:42;2.63;;;1.20;;
3433;SDS011;1730;41.932;25.548;2023-11-18T13:17:09;5.87;;;1.30;;
3433;SDS011;1730;41.932;25.548;2023-11-18T13:19:41;1.60;;;1.50;;
3433;SDS011;1730;41.932;25.548;2023-11-18T13:22:08;1.70;;;1.20;;
3433;SDS011;1730;41.932;25.548;2023-11-18T13:24:43;1.80;;;1.60;;
3433;SDS011;1730;41.932;25.548;2023-11-18T13:27:09;1.30;;;1.20;;
3433;SDS011;1730;41.932;25.548;2023-11-18T13:29:36;1.57;;;1.40;;
3433;SDS011;1730;41.932;25.548;2023-11-18T13:32:08;1.30;;;1.20;;
3433;SDS011;1730;41.932;25.548;2023-11-18T13:34:35;10.00;;;1.70;;
3433;SDS011;1730;41.932;25.548;2023-11-18T13:37:10;1.87;;;1.40;;
3433;SDS011;1730;41.932;25.548;2023-11-18T13:39:42;2.03;;;1.90;;
3433;SDS011;1730;41.932;25.548;2023-11-18T13:42:25;3.80;;;2.30;;
3433;SDS011;1730;41.932;25.548;2023-11-18T13:44:53;5.40;;;2.83;;
3433;SDS011;1730;41.932;25.548;2023-11-18T13:47:26;3.07;;;1.67;;
3433;SDS011;1730;41.932;25.548;2023-11-18T13:49:55;1.77;;;1.23;;
3433;SDS011;1730;41.932;25.548;2023-11-18T13:52:23;1.70;;;1.20;;
3433;SDS011;1730;41.932;25.548;2023-11-18T13:54:50;1.43;;;1.33;;
3433;SDS011;1730;41.932;25.548;2023-11-18T13:57:20;1.50;;;1.20;;
3433;SDS011;1730;41.932;25.548;2023-11-18T13:59:49;1.40;;;1.30;;
3433;SDS011;1730;41.932;25.548;2023-11-18T14:02:15;1.60;;;1.47;;
3433;SDS011;1730;41.932;25.548;2023-11-18T14:04:41;4.60;;;1.47;;
3433;SDS011;1730;41.932;25.548;2023-11-18T14:07:13;3.40;;;1.53;;
3433;SDS011;1730;41.932;25.548;2023-11-18T14:09:42;2.90;;;1.37;;
3433;SDS011;1730;41.932;25.548;2023-11-18T14:12:11;1.50;;;1.40;;
3433;SDS011;1730;41.932;25.548;2023-11-18T14:14:38;1.90;;;1.43;;
3433;SDS011;1730;41.932;25.548;2023-11-18T14:17:04;3.40;;;1.20;;
3433;SDS011;1730;41.932;25.548;2023-11-18T14:19:31;1.60;;;1.40;;
3433;SDS011;1730;41.932;25.548;2023-11-18T14:22:00;1.40;;;1.30;;
3433;SDS011;1730;41.932;25.548;2023-11-18T14:24:26;1.27;;;1.07;;
3433;SDS011;1730;41.932;25.548;2023-11-18T14:26:53;1.83;;;1.60;;
3433;SDS011;1730;41.932;25.548;2023-11-18T14:29:19;1.50;;;1.40;;
3433;SDS011;1730;41.932;25.548;2023-11-18T14:31:45;2.70;;;1.40;;
3433;SDS011;1730;41.932;25.548;2023-11-18T14:34:11;4.70;;;1.20;;
3433;SDS011;1730;41.932;25.548;2023-11-18T14:36:37;3.50;;;1.20;;
3433;SDS011;1730;41.932;25.548;2023-11-18T14:39:03;1.50;;;1.40;;
3433;SDS011;1730;41.932;25.548;2023-11-18T14:41:29;1.60;;;1.50;;
3433;SDS011;1730;41.932;25.548;2023-11-18T14:43:56;1.60;;;1.50;;
3433;SDS011;1730;41.932;25.548;2023-11-18T14:46:23;3.53;;;2.50;;
3433;SDS011;1730;41.932;25.548;2023-11-18T14:48:49;9.00;;;1.90;;
3433;SDS011;1730;41.932;25.548;2023-11-18T14:51:16;2.57;;;1.87;;
3433;SDS011;1730;41.932;25.548;2023-11-18T14:53:42;6.30;;;1.70;;
3433;SDS011;1730;41.932;25.548;2023-11-18T14:56:09;2.00;;;1.60;;
3433;SDS011;1730;41.932;25.548;2023-11-18T14:58:35;2.80;;;1.67;;
3433;SDS011;1730;41.932;25.548;2023-11-18T15:01:01;3.90;;;1.83;;
3433;SDS011;1730;41.932;25.548;2023-11-18T15:03:27;2.80;;;1.30;;
3433;SDS011;1730;41.932;25.548;2023-11-18T15:05:53;1.50;;;1.30;;
3433;SDS011;1730;41.932;25.548;2023-11-18T15:08:19;1.70;;;1.60;;
3433;SDS011;1730;41.932;25.548;2023-11-18T15:10:44;1.50;;;1.40;;
3433;SDS011;1730;41.932;25.548;2023-11-18T15:13:10;3.10;;;1.60;;
3433;SDS011;1730;41.932;25.548;2023-11-18T15:15:44;2.03;;;1.70;;
3433;SDS011;1730;41.932;25.548;2023-11-18T15:18:12;4.33;;;1.70;;
3433;SDS011;1730;41.932;25.548;2023-11-18T15:20:43;2.00;;;1.83;;
3433;SDS011;1730;41.932;25.548;2023-11-18T15:23:09;10.40;;;2.10;;
3433;SDS011;1730;41.932;25.548;2023-11-18T15:25:35;5.40;;;1.50;;
3433;SDS011;1730;41.932;25.548;2023-11-18T15:28:02;2.13;;;1.93;;
3433;SDS011;1730;41.932;25.548;2023-11-18T15:30:30;2.07;;;1.40;;
3433;SDS011;1730;41.932;25.548;2023-11-18T15:32:56;2.20;;;2.00;;
3433;SDS011;1730;41.932;25.548;2023-11-18T15:35:22;13.17;;;8.90;;